• Join FlightAware (Why Join?)
  • Login
  • US Flag 
11:24AM EDT


 

Airport Tracker/Info


-or-


 

Live Flight TrackerFlight Track Log ✈ TPA725 ✈ 02-May-2013 ✈ KMIA - SVVA / VLN

Flight Track Log - Related Links

Times and Time Zones

All times are in EDT time to prevent confusion due to time zone crossing. See the TPA725 flight status page for this flight to view local times or setup timezone preferences in your user account.

Time Position Orientation Groundspeed Altitude Reporting Facility
EDT Latitude Longitude Course Direction KTS MPH feet Rate Location/Type
01:05PM 25.7836 -80.2764 112° Southeast 175 201 900  Level Miami Center
01:06PM 25.7697 -80.2392 112° Southeast 198 228 2,100 2,100 Climbing Miami Center
01:08PM 25.7411 -80.1183 105° East 284 327 5,900 2,520 Climbing Miami Center
01:09PM 25.7200 -80.0347 106° East 279 321 8,700 2,520 Climbing Miami Center
01:10PM 25.7011 -79.9419 103° East 291 335 11,000 2,160 Climbing Miami Center
01:11PM 25.6761 -79.8331 104° East 323 372 13,100 2,400 Climbing Miami Center
01:12PM 25.6681 -79.7106 94° East 362 417 15,900 2,580 Climbing Miami Center
01:13PM 25.6350 -79.5900 107° East 385 443 18,300 2,100 Climbing Miami Center
01:14PM 25.6017 -79.4603 106° East 417 480 20,200 1,620 Climbing Miami Center
01:15PM 25.5667 -79.3192 105° East 450 518 21,600 2,160 Climbing Miami Center
01:16PM 25.5292 -79.1733 106° East 470 541 24,600 2,460 Climbing Miami Center
01:17PM 25.4917 -79.0319 106° East 481 554 26,600 1,800 Climbing Miami Center
01:18PM 25.4178 -78.9294 129° Southeast 469 540 28,300 1,800 Climbing Miami Center
01:19PM 25.3233 -78.8200 134° Southeast 480 552 30,300 2,040 Climbing Miami Center
01:20PM 25.2308 -78.7081 132° Southeast 480 552 32,400 1,860 Climbing Miami Center
01:21PM 25.1400 -78.5967 132° Southeast 486 559 34,100 1,440 Climbing Miami Center
01:22PM 25.0514 -78.4853 131° Southeast 486 559 35,300 1,020 Climbing Miami Center
01:23PM 24.9567 -78.3694 132° Southeast 492 566 36,200 900 Climbing Miami Center
01:24PM 24.8636 -78.2514 131° Southeast 498 573 37,200 960 Climbing Miami Center
01:25PM 24.7667 -78.1358 133° Southeast 504 580 38,200 900 Climbing Miami Center
01:26PM 24.6692 -78.0183 132° Southeast 509 586 39,000 360 Climbing Miami Center
01:27PM 24.5739 -77.9008 132° Southeast 509 586 39,000  Level Miami Center
01:28PM 24.4786 -77.7858 132° Southeast 509 586 39,000  Level Miami Center
01:29PM 24.3853 -77.6711 132° Southeast 509 586 39,000  Level Miami Center
01:30PM 24.2917 -77.5589 132° Southeast 503 579 39,000  Level Miami Center
01:31PM 24.1983 -77.4444 132° Southeast 503 579 39,000  Level Miami Center
01:32PM 24.1044 -77.3347 133° Southeast 503 579 39,000  Level Miami Center
01:33PM 24.0128 -77.2206 131° Southeast 503 579 39,000  Level Miami Center
01:34PM 23.9192 -77.1089 133° Southeast 503 579 39,000  Level Miami Center
01:35PM 23.8253 -76.9975 133° Southeast 498 573 39,000  Level Miami Center
01:36PM 23.7292 -76.8817 132° Southeast 503 579 39,000  Level Miami Center
01:37PM 23.6331 -76.7706 133° Southeast 503 579 39,000  Level Miami Center
01:38PM 23.5367 -76.6572 133° Southeast 503 579 39,000  Level Miami Center
01:39PM 23.4403 -76.5419 132° Southeast 503 579 39,000  Level Miami Center
01:40PM 23.3419 -76.4267 133° Southeast 503 579 39,000  Level Miami Center
01:41PM 23.2453 -76.3117 132° Southeast 503 579 39,000  Level Miami Center
01:42PM 23.1342 -76.1856 134° Southeast 509 586 39,000  Level Miami Center
01:43PM 23.0375 -76.0711 133° Southeast 509 586 39,000  Level Miami Center
01:44PM 22.9386 -75.9544 133° Southeast 514 592 39,000  Level Miami Center
01:45PM 22.8417 -75.8422 133° Southeast 514 592 39,000  Level Miami Center
01:46PM 22.7447 -75.7283 133° Southeast 514 592 39,000  Level Miami Center
01:47PM 22.6500 -75.6164 133° Southeast 514 592 39,000  Level Miami Center
01:48PM 22.5528 -75.5028 133° Southeast 514 592 39,000  Level Miami Center
01:49PM 22.4556 -75.3936 134° Southeast 514 592 39,000  Level Miami Center
01:50PM 22.3606 -75.2825 133° Southeast 514 592 39,000  Level Miami Center
01:51PM 22.2675 -75.1714 132° Southeast 509 586 39,000  Level Miami Center
01:52PM 22.1700 -75.0628 134° Southeast 504 580 39,000  Level Miami Center
01:53PM 22.0728 -74.9519 133° Southeast 504 580 39,000  Level Miami Center
01:54PM 21.9753 -74.8414 134° Southeast 504 580 39,000  Level Miami Center
01:55PM 21.8714 -74.7422 138° Southeast 504 580 39,000  Level Miami Center
01:56PM 21.7636 -74.6478 141° Southeast 504 580 39,000  Level Miami Center
01:57PM 21.6556 -74.5492 140° Southeast 504 580 39,000  Level Miami Center
01:58PM 21.5497 -74.4572 141° Southeast 504 580 39,000  Level Miami Center
01:59PM 21.4417 -74.3589 140° Southeast 504 580 39,000  Level Miami Center
02:00PM 21.3339 -74.2650 141° Southeast 504 580 39,000  Level Miami Center
02:01PM 21.2278 -74.1714 141° Southeast 504 580 39,000  Level Miami Center
02:02PM 21.1236 -74.0689 137° Southeast 504 580 39,000  Level Miami Center
02:03PM 21.0219 -73.9842 142° Southeast 509 586 39,000  Level Miami Center
02:04PM 20.9136 -73.8911 141° Southeast 504 580 39,000  Level Miami Center
02:05PM 20.8075 -73.7981 141° Southeast 504 580 39,000  Level Miami Center
02:06PM 20.7056 -73.7050 140° Southeast 496 571 39,000  Level Miami Center
02:07PM 20.5950 -73.6122 142° Southeast 501 577 39,000  Level Miami Center
02:08PM 20.4867 -73.5217 142° Southeast 501 577 39,000  Level Miami Center
02:09PM 20.3806 -73.4292 141° Southeast 501 577 39,000  Level Miami Center
02:10PM 20.2742 -73.3367 141° Southeast 501 577 39,000  Level Miami Center
02:11PM 20.1678 -73.2444 141° Southeast 492 566 39,000  Level Miami Center
02:12PM 20.0594 -73.1700 147° Southeast 486 559 39,000  Level Miami Center
02:14PM 19.8568 -73.0570 152° Southeast  Level FlightAware Approximate
02:21PM 19.0890 -72.6326 153° Southeast  Level FlightAware Approximate
02:22PM 18.9792 -72.5725 153° Southeast  Level FlightAware Approximate
02:23PM 18.8693 -72.5125 153° Southeast  Level FlightAware Approximate
02:24PM 18.7595 -72.4526 153° Southeast  Level FlightAware Approximate
02:25PM 18.6495 -72.3927 153° Southeast  Level FlightAware Approximate
02:26PM 18.5396 -72.3329 153° Southeast  Level FlightAware Approximate
02:27PM 18.4297 -72.2731 153° Southeast  Level FlightAware Approximate
02:28PM 18.3198 -72.2135 153° Southeast  Level FlightAware Approximate
02:29PM 18.2098 -72.1539 153° Southeast  Level FlightAware Approximate
02:30PM 18.0998 -72.0944 153° Southeast  Level FlightAware Approximate
02:31PM 17.9898 -72.0350 153° Southeast  Level FlightAware Approximate
02:32PM 17.8798 -71.9757 153° Southeast  Level FlightAware Approximate
02:33PM 17.7697 -71.9164 153° Southeast  Level FlightAware Approximate
02:34PM 17.6597 -71.8572 153° Southeast  Level FlightAware Approximate
02:35PM 17.5496 -71.7981 153° Southeast  Level FlightAware Approximate
02:36PM 17.4395 -71.7390 153° Southeast  Level FlightAware Approximate
02:37PM 17.3295 -71.6799 153° Southeast  Level FlightAware Approximate
02:38PM 17.2195 -71.6205 153° Southeast  Level FlightAware Approximate
02:39PM 17.1096 -71.5612 153° Southeast  Level FlightAware Approximate
02:40PM 16.9997 -71.5019 153° Southeast  Level FlightAware Approximate
02:41PM 16.8897 -71.4427 153° Southeast  Level FlightAware Approximate
02:42PM 16.7798 -71.3836 153° Southeast  Level FlightAware Approximate
02:43PM 16.6698 -71.3246 153° Southeast  Level FlightAware Approximate
02:44PM 16.5598 -71.2656 153° Southeast  Level FlightAware Approximate
02:45PM 16.4498 -71.2067 153° Southeast  Level FlightAware Approximate
02:46PM 16.3398 -71.1479 153° Southeast  Level FlightAware Approximate
02:47PM 16.2297 -71.0891 153° Southeast  Level FlightAware Approximate
02:48PM 16.1196 -71.0304 153° Southeast  Level FlightAware Approximate
02:49PM 16.0096 -70.9717 153° Southeast  Level FlightAware Approximate
02:50PM 15.8989 -70.9142 153° Southeast  Level FlightAware Approximate
02:51PM 15.7883 -70.8569 153° Southeast  Level FlightAware Approximate
02:52PM 15.6776 -70.7996 154° Southeast  Level FlightAware Approximate
02:53PM 15.5669 -70.7423 154° Southeast  Level FlightAware Approximate
02:54PM 15.4562 -70.6852 154° Southeast  Level FlightAware Approximate
02:55PM 15.3454 -70.6281 154° Southeast  Level FlightAware Approximate
02:56PM 15.2347 -70.5710 154° Southeast  Level FlightAware Approximate
02:57PM 15.1239 -70.5140 154° Southeast  Level FlightAware Approximate
02:58PM 15.0131 -70.4571 154° Southeast  Level FlightAware Approximate
02:59PM 14.9024 -70.4002 154° Southeast  Level FlightAware Approximate
03:00PM 14.7915 -70.3434 154° Southeast  Level FlightAware Approximate
03:01PM 14.6807 -70.2867 154° Southeast  Level FlightAware Approximate
03:02PM 14.5699 -70.2299 154° Southeast  Level FlightAware Approximate
03:03PM 14.4590 -70.1733 154° Southeast  Level FlightAware Approximate
03:04PM 14.3482 -70.1167 154° Southeast  Level FlightAware Approximate
03:05PM 14.2374 -70.0601 153° Southeast  Level FlightAware Approximate
03:06PM 14.1271 -70.0023 153° Southeast  Level FlightAware Approximate
03:07PM 14.0168 -69.9447 153° Southeast  Level FlightAware Approximate
03:08PM 13.9065 -69.8871 153° Southeast  Level FlightAware Approximate
03:09PM 13.7961 -69.8296 153° Southeast  Level FlightAware Approximate
03:10PM 13.6858 -69.7721 153° Southeast  Level FlightAware Approximate
03:11PM 13.5754 -69.7147 153° Southeast  Level FlightAware Approximate
03:12PM 13.4650 -69.6573 153° Southeast  Level FlightAware Approximate
03:13PM 13.3547 -69.6000 153° Southeast  Level FlightAware Approximate
03:14PM 13.2443 -69.5427 153° Southeast  Level FlightAware Approximate
03:15PM 13.1339 -69.4855 153° Southeast  Level FlightAware Approximate
03:16PM 13.0234 -69.4283 153° Southeast  Level FlightAware Approximate
03:17PM 12.9130 -69.3712 153° Southeast  Level FlightAware Approximate
03:18PM 12.8026 -69.3141 153° Southeast  Level FlightAware Approximate
03:19PM 12.6921 -69.2571 153° Southeast  Level FlightAware Approximate
03:20PM 12.5816 -69.2001 153° Southeast  Level FlightAware Approximate
03:21PM 12.4709 -69.1438 154° Southeast  Level FlightAware Approximate
03:22PM 12.3598 -69.0882 154° Southeast  Level FlightAware Approximate
03:23PM 12.2486 -69.0326 154° Southeast  Level FlightAware Approximate
03:24PM 12.1375 -68.9771 154° Southeast  Level FlightAware Approximate
03:25PM 12.0264 -68.9215 154° Southeast  Level FlightAware Approximate
03:26PM 11.9177 -68.8618 147° Southeast  Level FlightAware Approximate
03:27PM 11.8115 -68.7974 154° Southeast  Level FlightAware Approximate
03:28PM 11.7004 -68.7419 154° Southeast  Level FlightAware Approximate
03:29PM 11.5900 -68.6850 151° Southeast  Level FlightAware Approximate
03:30PM 11.4817 -68.6241 151° Southeast  Level FlightAware Approximate
03:31PM 11.3734 -68.5632 151° Southeast  Level FlightAware Approximate
03:32PM 11.2630 -68.5064 154° Southeast  Level FlightAware Approximate
03:33PM 11.1520 -68.4509 154° Southeast  Level FlightAware Approximate
03:34PM 11.0410 -68.3954 154° Southeast  Level FlightAware Approximate
03:35PM 10.9300 -68.3399 154° Southeast  Level FlightAware Approximate
03:36PM 10.8196 -68.2831 151° Southeast  Level FlightAware Approximate
03:37PM 10.7111 -68.2228 151° Southeast  Level FlightAware Approximate
03:38PM 10.6021 -68.1633 152° Southeast  Level FlightAware Approximate
03:39PM 10.4932 -68.1036 151° Southeast  Level FlightAware Approximate
03:40PM 10.3847 -68.0433 151° Southeast  Level FlightAware Approximate
03:41PM 10.2734 -67.9950 154° Southeast  Level FlightAware Approximate
03:42PM 10.1680 -67.9302 144° Southeast  Level FlightAware Approximate
03:43PM 10.1500 -67.9167 144° Southeast  Level FlightAware Approximate
03:44PM 10.1497 -67.9284 144° Southeast  Level Estimated
03:45PM 10.1497 -67.9284 144° Southeast  Level Estimated
03:46PM 10.1497 -67.9284 144° Southeast  Level Estimated
03:47PM 10.1497 -67.9284 144° Southeast  Level Estimated
03:48PM 10.1497 -67.9284 144° Southeast  Level Estimated
03:49PM 10.1497 -67.9284 144° Southeast  Level Estimated
03:50PM 10.1497 -67.9284 144° Southeast  Level Estimated
03:51PM 10.1497 -67.9284 144° Southeast  Level Estimated
03:52PM 10.1497 -67.9284 144° Southeast  Level Estimated
03:53PM 10.1497 -67.9284 144° Southeast  Level Estimated
03:54PM 10.1497 -67.9284 144° Southeast  Level Estimated
03:55PM 10.1497 -67.9284 144° Southeast  Level Estimated
03:56PM 10.1497 -67.9284 144° Southeast  Level Estimated
03:57PM 10.1497 -67.9284 144° Southeast  Level Estimated
03:58PM 10.1497 -67.9284 144° Southeast  Level Estimated
03:59PM 10.1497 -67.9284 144° Southeast  Level Estimated
04:00PM 10.1497 -67.9284 144° Southeast  Level Estimated
04:01PM 10.1497 -67.9284 144° Southeast  Level Estimated
04:02PM 10.1497 -67.9284 144° Southeast  Level Estimated